createdAt,value
2018-07-02T00:01:36.772Z,116.15
2018-07-02T00:04:08.070Z,118.55
2018-07-02T00:06:50.099Z,121.57
2018-07-02T00:09:21.453Z,122.25
2018-07-02T00:11:52.825Z,121.22
2018-07-02T00:14:24.032Z,125.07
2018-07-02T00:16:55.388Z,118.30
2018-07-02T00:19:26.689Z,118.93
2018-07-02T00:21:58.125Z,117.03
2018-07-02T00:24:29.371Z,118.00
2018-07-02T00:27:00.590Z,116.28
2018-07-02T00:29:31.784Z,115.00
2018-07-02T00:32:03.092Z,112.77
2018-07-02T00:34:34.330Z,117.35
2018-07-02T00:37:05.919Z,116.65
2018-07-02T00:39:37.197Z,116.08
2018-07-02T00:42:08.479Z,119.80
2018-07-02T00:44:39.688Z,115.92
2018-07-02T00:47:11.061Z,121.13
2018-07-02T00:49:42.380Z,119.82
2018-07-02T00:52:13.784Z,117.87
2018-07-02T00:54:45.116Z,116.12
2018-07-02T00:57:16.334Z,121.53
2018-07-02T00:59:47.976Z,116.25
2018-07-02T01:02:19.247Z,114.62
2018-07-02T01:04:50.665Z,110.52
2018-07-02T01:07:21.871Z,120.30
2018-07-02T01:09:53.239Z,116.50
2018-07-02T01:12:24.539Z,120.10
2018-07-02T01:14:55.888Z,114.90
2018-07-02T01:17:27.068Z,120.50
2018-07-02T01:19:58.405Z,112.65
2018-07-02T01:22:29.639Z,115.55
2018-07-02T01:25:00.944Z,115.28
2018-07-02T01:27:34.595Z,117.37
2018-07-02T01:30:06.876Z,116.50
2018-07-02T01:32:38.182Z,117.17
2018-07-02T01:35:09.803Z,113.08
2018-07-02T01:37:41.068Z,116.55
2018-07-02T01:40:12.342Z,119.13
2018-07-02T01:42:43.534Z,122.35
2018-07-02T01:45:14.916Z,119.53
2018-07-02T01:47:46.125Z,114.77
2018-07-02T01:50:17.382Z,111.62
2018-07-02T01:52:48.692Z,116.53
2018-07-02T01:55:19.992Z,115.30
2018-07-02T01:57:51.167Z,119.00
2018-07-02T02:00:22.478Z,116.57
2018-07-02T02:02:53.548Z,113.57
2018-07-02T02:05:24.744Z,115.30
2018-07-02T02:07:56.199Z,113.35
2018-07-02T02:10:27.583Z,115.72
2018-07-02T02:12:59.024Z,112.52
2018-07-02T02:15:30.462Z,111.50
2018-07-02T02:18:01.790Z,110.92
2018-07-02T02:20:33.142Z,115.65
2018-07-02T02:23:04.373Z,107.80
2018-07-02T02:25:35.694Z,107.47
2018-07-02T02:28:07.057Z,112.62
2018-07-02T02:30:38.651Z,112.95
2018-07-02T02:33:10.331Z,111.42
2018-07-02T02:35:41.635Z,114.37
2018-07-02T02:38:13.226Z,108.10
2018-07-02T02:40:44.467Z,109.42
2018-07-02T02:43:15.772Z,107.65
2018-07-02T02:45:46.965Z,110.03
2018-07-02T02:48:18.332Z,110.00
2018-07-02T02:50:49.547Z,111.80
2018-07-02T02:53:20.893Z,112.08
2018-07-02T02:55:52.144Z,114.77
2018-07-02T02:58:23.374Z,116.57
2018-07-02T03:00:54.628Z,112.90
2018-07-02T03:03:25.925Z,114.57
2018-07-02T03:05:57.179Z,121.87
2018-07-02T03:08:28.635Z,112.97
2018-07-02T03:10:59.968Z,116.05
2018-07-02T03:13:31.304Z,116.90
2018-07-02T03:16:02.757Z,116.55
2018-07-02T03:18:34.005Z,112.68
2018-07-02T03:21:05.278Z,110.22
2018-07-02T03:23:36.760Z,108.72
2018-07-02T03:26:08.073Z,116.85
2018-07-02T03:28:39.460Z,113.37
2018-07-02T03:31:11.081Z,112.62
2018-07-02T03:33:42.316Z,110.40
2018-07-02T03:36:13.628Z,110.40
2018-07-02T03:38:44.795Z,112.52
2018-07-02T03:41:16.122Z,114.00
2018-07-02T03:43:47.601Z,111.60
2018-07-02T03:46:18.784Z,106.72
2018-07-02T03:48:49.959Z,110.10
2018-07-02T03:51:21.496Z,108.42
2018-07-02T03:53:52.727Z,109.95
2018-07-02T03:56:23.976Z,110.68
2018-07-02T03:58:55.306Z,114.32
2018-07-02T04:01:26.600Z,108.90
2018-07-02T04:03:57.920Z,109.83
2018-07-02T04:06:29.101Z,113.32
2018-07-02T04:09:00.327Z,113.75
2018-07-02T04:11:31.598Z,113.08
2018-07-02T04:14:02.909Z,113.17
2018-07-02T04:16:34.188Z,112.95
2018-07-02T04:19:13.676Z,112.80
2018-07-02T04:21:45.087Z,113.47
2018-07-02T04:24:16.506Z,116.17
2018-07-02T04:26:47.691Z,109.83
2018-07-02T04:29:19.027Z,113.45
2018-07-02T04:31:50.156Z,109.17
2018-07-02T04:34:21.363Z,111.88
2018-07-02T04:36:52.698Z,111.20
2018-07-02T04:39:27.324Z,114.80
2018-07-02T04:41:58.572Z,117.30
2018-07-02T04:44:29.912Z,116.93
2018-07-02T04:47:01.341Z,117.53
2018-07-02T04:49:32.747Z,120.72
2018-07-02T04:52:04.500Z,115.10
2018-07-02T04:54:35.827Z,120.17
2018-07-02T04:57:07.216Z,119.02
2018-07-02T04:59:38.931Z,123.00
2018-07-02T05:02:10.184Z,124.40
2018-07-02T05:04:41.271Z,118.25
2018-07-02T05:07:12.979Z,120.05
2018-07-02T05:09:45.303Z,119.42
2018-07-02T05:12:16.725Z,122.60
2018-07-02T05:14:47.963Z,122.82
2018-07-02T05:17:20.046Z,122.70
2018-07-02T05:19:51.815Z,120.25
2018-07-02T05:22:23.104Z,118.67
2018-07-02T05:24:54.407Z,129.45
2018-07-02T05:27:25.730Z,125.15
2018-07-02T05:29:56.907Z,126.75
2018-07-02T05:32:28.117Z,125.92
2018-07-02T05:34:59.332Z,124.58
2018-07-02T05:37:30.436Z,126.27
2018-07-02T05:40:01.711Z,130.10
2018-07-02T05:42:33.496Z,126.72
2018-07-02T05:45:04.723Z,125.82
2018-07-02T05:47:35.993Z,128.15
2018-07-02T05:50:07.710Z,127.75
2018-07-02T05:52:43.858Z,126.07
2018-07-02T05:55:15.464Z,130.67
2018-07-02T05:57:46.679Z,130.18
2018-07-02T06:00:18.115Z,128.23
2018-07-02T06:02:49.335Z,180.63
2018-07-02T06:05:21.377Z,130.43
2018-07-02T06:07:53.377Z,124.50
2018-07-02T06:10:24.439Z,123.45
2018-07-02T06:12:55.612Z,126.92
2018-07-02T06:15:26.845Z,132.95
2018-07-02T06:18:07.251Z,131.97
2018-07-02T06:20:39.021Z,131.22
2018-07-02T06:23:10.286Z,135.48
2018-07-02T06:25:41.577Z,132.37
2018-07-02T06:28:12.768Z,129.27
2018-07-02T06:30:44.236Z,129.80
2018-07-02T06:33:15.408Z,129.97
2018-07-02T06:35:46.526Z,134.03
2018-07-02T06:38:17.640Z,130.90
2018-07-02T06:40:49.241Z,132.55
2018-07-02T06:43:20.429Z,129.90
2018-07-02T06:45:51.727Z,131.52
2018-07-02T06:48:23.029Z,130.67
2018-07-02T06:50:54.221Z,130.32
2018-07-02T06:53:25.422Z,126.53
2018-07-02T06:55:56.688Z,129.70
2018-07-02T06:58:27.946Z,133.10
2018-07-02T07:00:59.390Z,129.03
2018-07-02T07:03:31.968Z,133.95
2018-07-02T07:06:03.515Z,132.15
2018-07-02T07:08:34.762Z,135.90
2018-07-02T07:11:05.932Z,133.25
2018-07-02T07:13:37.116Z,134.18
2018-07-02T07:16:08.430Z,133.27
2018-07-02T07:18:46.845Z,130.67
2018-07-02T07:21:20.424Z,130.85
2018-07-02T07:23:51.867Z,135.15
2018-07-02T07:26:23.104Z,131.97
2018-07-02T07:28:54.430Z,130.45
2018-07-02T07:31:25.513Z,130.97
2018-07-02T07:33:56.842Z,131.67
2018-07-02T07:36:28.069Z,133.00
2018-07-02T07:38:59.375Z,129.63
2018-07-02T07:41:30.940Z,133.52
2018-07-02T07:44:02.266Z,133.18
2018-07-02T07:46:33.460Z,131.22
2018-07-02T07:49:04.700Z,132.97
2018-07-02T07:51:37.591Z,132.82
2018-07-02T07:54:10.766Z,130.30
2018-07-02T07:56:48.830Z,134.47
2018-07-02T07:59:20.381Z,134.50
2018-07-02T08:01:51.758Z,131.63
2018-07-02T08:04:22.918Z,139.18
2018-07-02T08:06:54.437Z,135.88
2018-07-02T08:09:25.765Z,133.22
2018-07-02T08:11:57.896Z,131.22
2018-07-02T08:14:29.170Z,131.20
2018-07-02T08:17:00.623Z,130.05
2018-07-02T08:19:32.066Z,132.05
2018-07-02T08:22:03.361Z,132.55
2018-07-02T08:24:34.769Z,129.40
2018-07-02T08:27:06.203Z,132.75
2018-07-02T08:29:37.683Z,136.18
2018-07-02T08:32:09.266Z,133.15
2018-07-02T08:34:41.150Z,136.10
2018-07-02T08:37:12.473Z,132.87
2018-07-02T08:39:43.993Z,132.80
2018-07-02T08:42:15.298Z,136.22
2018-07-02T08:44:46.535Z,137.62
2018-07-02T08:47:17.783Z,132.27
2018-07-02T08:49:49.500Z,130.37
2018-07-02T08:52:20.782Z,131.25
2018-07-02T08:54:51.937Z,134.00
2018-07-02T08:57:23.366Z,136.37
2018-07-02T08:59:54.725Z,129.47
2018-07-02T09:02:26.088Z,128.32
2018-07-02T09:04:57.647Z,128.05
2018-07-02T09:07:28.936Z,127.20
2018-07-02T09:10:00.319Z,127.47
2018-07-02T09:12:31.609Z,135.07
2018-07-02T09:15:03.062Z,132.40
2018-07-02T09:17:35.229Z,132.82
2018-07-02T09:20:06.716Z,130.05
2018-07-02T09:22:38.048Z,133.45
2018-07-02T09:25:10.271Z,129.20
2018-07-02T09:27:41.735Z,131.12
2018-07-02T09:30:13.237Z,133.05
2018-07-02T09:32:44.697Z,130.78
2018-07-02T09:35:17.047Z,133.87
2018-07-02T09:37:48.281Z,131.78
2018-07-02T09:40:19.751Z,131.70
2018-07-02T09:42:53.634Z,133.70
2018-07-02T09:45:29.614Z,133.80
2018-07-02T09:48:05.583Z,131.47
2018-07-02T09:50:41.120Z,132.10
2018-07-02T09:53:29.253Z,131.57
2018-07-02T09:56:03.177Z,131.72
2018-07-02T09:58:34.606Z,128.53
2018-07-02T10:01:06.014Z,134.80
2018-07-02T10:03:37.121Z,132.12
2018-07-02T10:06:08.410Z,132.20
2018-07-02T10:08:39.587Z,141.75
2018-07-02T10:11:11.281Z,136.88
2018-07-02T10:13:42.756Z,137.47
2018-07-02T10:16:19.887Z,132.60
2018-07-02T10:18:51.756Z,137.65
2018-07-02T10:21:25.923Z,138.03
2018-07-02T10:23:57.497Z,137.12
2018-07-02T10:26:29.180Z,136.68
2018-07-02T10:29:00.778Z,138.75
2018-07-02T10:31:32.755Z,135.00
2018-07-02T10:34:04.194Z,141.57
2018-07-02T10:36:35.631Z,135.63
2018-07-02T10:39:09.592Z,135.72
2018-07-02T10:41:41.376Z,134.95
2018-07-02T10:44:13.161Z,133.27
2018-07-02T10:46:44.501Z,131.32
2018-07-02T10:49:16.065Z,132.78
2018-07-02T10:51:47.720Z,129.42
2018-07-02T10:54:22.052Z,133.57
2018-07-02T10:56:54.097Z,133.87
2018-07-02T10:59:39.261Z,136.28
2018-07-02T11:02:22.339Z,135.45
2018-07-02T11:05:05.957Z,138.75
2018-07-02T11:07:37.984Z,138.72
2018-07-02T11:10:09.268Z,131.27
2018-07-02T11:12:42.172Z,129.75
2018-07-02T11:15:13.420Z,132.25
2018-07-02T11:17:44.636Z,132.70
2018-07-02T11:20:15.818Z,131.45
2018-07-02T11:22:47.228Z,129.27
2018-07-02T11:25:18.492Z,135.10
2018-07-02T11:27:49.844Z,139.20
2018-07-02T11:30:23.629Z,136.92
2018-07-02T11:32:56.582Z,133.85
2018-07-02T11:35:27.996Z,134.72
2018-07-02T11:37:59.619Z,128.42
2018-07-02T11:40:35.283Z,132.32
2018-07-02T11:43:06.601Z,124.58
2018-07-02T11:45:37.835Z,131.00
2018-07-02T11:48:09.918Z,128.30
2018-07-02T11:50:41.711Z,126.22
2018-07-02T11:53:12.832Z,124.30
2018-07-02T11:55:44.200Z,128.18
2018-07-02T11:58:15.255Z,135.00
2018-07-02T12:00:46.409Z,128.85
2018-07-02T12:03:18.557Z,133.03
2018-07-02T12:05:49.987Z,137.52
2018-07-02T12:08:21.216Z,135.25
2018-07-02T12:10:52.415Z,136.82
2018-07-02T12:13:23.697Z,133.82
2018-07-02T12:15:54.860Z,134.20
2018-07-02T12:18:26.240Z,129.27
2018-07-02T12:20:57.614Z,129.05
2018-07-02T12:23:28.695Z,134.00
2018-07-02T12:26:00.273Z,133.05
2018-07-02T12:28:31.589Z,138.22
2018-07-02T12:31:03.179Z,136.75
2018-07-02T12:33:34.422Z,132.07
2018-07-02T12:36:06.269Z,131.55
2018-07-02T12:38:37.452Z,133.35
2018-07-02T12:41:08.762Z,134.00
2018-07-02T12:43:39.967Z,135.68
2018-07-02T12:46:11.213Z,137.10
2018-07-02T12:48:42.677Z,132.22
2018-07-02T12:51:14.280Z,131.90
2018-07-02T12:53:46.155Z,134.05
2018-07-02T12:56:17.599Z,138.35
2018-07-02T12:58:48.813Z,142.70
2018-07-02T13:01:20.100Z,144.45
2018-07-02T13:03:52.627Z,138.18
2018-07-02T13:06:24.023Z,132.45
2018-07-02T13:08:55.295Z,136.80
2018-07-02T13:11:26.540Z,133.82
2018-07-02T13:13:57.859Z,133.18
2018-07-02T13:16:30.483Z,130.55
2018-07-02T13:19:05.605Z,137.60
2018-07-02T13:21:37.916Z,128.18
2018-07-02T13:24:09.230Z,136.07
2018-07-02T13:26:41.213Z,132.03
2018-07-02T13:29:15.193Z,131.07
2018-07-02T13:31:46.912Z,133.57
2018-07-02T13:34:32.462Z,132.75
2018-07-02T13:37:16.604Z,134.52
2018-07-02T13:39:55.402Z,137.97
2018-07-02T13:42:33.643Z,137.77
2018-07-02T13:45:14.163Z,138.85
2018-07-02T13:48:04.597Z,137.22
2018-07-02T13:50:58.515Z,136.52
2018-07-02T13:53:33.511Z,138.15
2018-07-02T13:56:04.580Z,136.75
2018-07-02T13:58:36.211Z,137.65
2018-07-02T14:01:07.522Z,139.82
2018-07-02T14:03:38.757Z,140.65
2018-07-02T14:06:10.103Z,135.40
2018-07-02T14:08:41.346Z,135.10
2018-07-02T14:11:22.072Z,134.78
2018-07-02T14:13:54.740Z,139.07
2018-07-02T14:16:26.003Z,137.52
2018-07-02T14:18:58.142Z,138.70
2018-07-02T14:21:29.744Z,134.87
2018-07-02T14:24:00.985Z,135.12
2018-07-02T14:26:33.150Z,135.05
2018-07-02T14:29:04.321Z,135.72
2018-07-02T14:31:35.756Z,131.15
2018-07-02T14:34:07.066Z,130.67
2018-07-02T14:36:38.300Z,136.60
2018-07-02T14:39:12.541Z,138.85
2018-07-02T14:41:44.164Z,133.18
2018-07-02T14:44:15.429Z,136.77
2018-07-02T14:46:46.733Z,135.60
2018-07-02T14:49:18.178Z,138.10
2018-07-02T14:51:49.571Z,139.50
2018-07-02T14:54:21.062Z,137.20
2018-07-02T14:56:52.363Z,138.47
2018-07-02T14:59:23.668Z,135.78
2018-07-02T15:01:54.871Z,136.37
2018-07-02T15:04:28.416Z,137.22
2018-07-02T15:07:01.732Z,137.43
2018-07-02T15:09:33.117Z,136.80
2018-07-02T15:12:04.541Z,136.03
2018-07-02T15:14:35.976Z,134.82
2018-07-02T15:17:07.227Z,135.82
2018-07-02T15:19:38.626Z,132.80
2018-07-02T15:22:09.959Z,136.68
2018-07-02T15:24:41.076Z,131.05
2018-07-02T15:27:13.602Z,131.90
2018-07-02T15:29:44.853Z,132.85
2018-07-02T15:32:16.125Z,152.38
2018-07-02T15:34:53.174Z,137.55
2018-07-02T15:37:24.634Z,133.03
2018-07-02T15:39:57.194Z,131.40
2018-07-02T15:42:28.576Z,136.55
2018-07-02T15:45:00.433Z,135.32
2018-07-02T15:47:31.725Z,135.63
2018-07-02T15:50:03.412Z,135.30
2018-07-02T15:52:34.743Z,138.55
2018-07-02T15:55:06.032Z,134.93
2018-07-02T15:57:37.507Z,139.20
2018-07-02T16:00:09.088Z,131.70
2018-07-02T16:02:40.298Z,136.05
2018-07-02T16:05:11.473Z,134.47
2018-07-02T16:07:42.713Z,133.45
2018-07-02T16:10:14.019Z,135.30
2018-07-02T16:12:45.241Z,131.75
2018-07-02T16:15:16.375Z,132.50
2018-07-02T16:17:47.665Z,138.12
2018-07-02T16:20:18.985Z,134.55
2018-07-02T16:22:50.064Z,134.07
2018-07-02T16:25:21.408Z,136.37
2018-07-02T16:27:52.852Z,135.45
2018-07-02T16:30:24.080Z,134.93
2018-07-02T16:32:55.585Z,139.60
2018-07-02T16:35:26.886Z,138.12
2018-07-02T16:37:59.138Z,133.75
2018-07-02T16:40:30.406Z,135.37
2018-07-02T16:43:01.650Z,133.35
2018-07-02T16:45:33.176Z,130.80
2018-07-02T16:48:04.675Z,132.82
2018-07-02T16:50:36.075Z,137.57
2018-07-02T16:53:07.318Z,139.10
2018-07-02T16:55:38.651Z,137.03
2018-07-02T16:58:09.864Z,136.72
2018-07-02T17:00:41.161Z,137.35
2018-07-02T17:03:13.959Z,131.37
2018-07-02T17:05:45.482Z,134.95
2018-07-02T17:08:16.738Z,135.45
2018-07-02T17:10:47.906Z,150.85
2018-07-02T17:13:19.294Z,144.60
2018-07-02T17:15:50.487Z,140.68
2018-07-02T17:18:21.845Z,140.92
2018-07-02T17:20:52.966Z,137.37
2018-07-02T17:23:24.413Z,137.60
2018-07-02T17:25:55.719Z,140.22
2018-07-02T17:28:27.043Z,136.68
2018-07-02T17:30:58.494Z,141.30
2018-07-02T17:33:29.732Z,139.15
2018-07-02T17:36:01.049Z,139.40
2018-07-02T17:38:32.200Z,135.50
2018-07-02T17:41:03.597Z,134.37
2018-07-02T17:43:35.027Z,133.18
2018-07-02T17:46:06.232Z,135.22
2018-07-02T17:48:37.511Z,136.03
2018-07-02T17:51:08.825Z,137.68
2018-07-02T17:53:40.336Z,135.10
2018-07-02T17:56:11.686Z,147.95
2018-07-02T17:58:43.031Z,133.40
2018-07-02T18:01:14.574Z,132.15
2018-07-02T18:03:46.090Z,132.25
2018-07-02T18:06:17.324Z,141.82
2018-07-02T18:08:49.287Z,139.07
2018-07-02T18:11:20.514Z,136.77
2018-07-02T18:13:52.183Z,136.77
2018-07-02T18:16:23.468Z,130.93
2018-07-02T18:18:54.787Z,133.27
2018-07-02T18:21:25.992Z,133.10
2018-07-02T18:23:57.237Z,131.47
2018-07-02T18:26:28.731Z,133.82
2018-07-02T18:29:01.115Z,137.32
2018-07-02T18:31:32.500Z,137.07
2018-07-02T18:34:06.081Z,133.43
2018-07-02T18:36:39.486Z,132.50
2018-07-02T18:39:12.861Z,137.20
2018-07-02T18:41:46.363Z,139.40
2018-07-02T18:44:18.196Z,130.90
2018-07-02T18:46:50.592Z,134.78
2018-07-02T18:49:22.505Z,134.50
2018-07-02T18:51:55.000Z,132.72
2018-07-02T18:54:26.436Z,133.27
2018-07-02T18:56:58.152Z,133.90
2018-07-02T18:59:29.455Z,138.88
2018-07-02T19:02:00.771Z,130.70
2018-07-02T19:04:31.920Z,136.97
2018-07-02T19:07:03.154Z,134.87
2018-07-02T19:09:34.432Z,127.40
2018-07-02T19:12:05.742Z,135.07
2018-07-02T19:14:37.230Z,134.90
2018-07-02T19:17:08.530Z,131.40
2018-07-02T19:19:40.068Z,135.97
2018-07-02T19:22:11.348Z,131.15
2018-07-02T19:24:42.448Z,131.12
2018-07-02T19:27:13.785Z,134.80
2018-07-02T19:29:44.894Z,135.88
2018-07-02T19:32:16.355Z,135.95
2018-07-02T19:34:47.937Z,133.40
2018-07-02T19:37:19.424Z,132.12
2018-07-02T19:39:50.766Z,176.87
2018-07-02T19:42:22.263Z,165.85
2018-07-02T19:44:53.475Z,141.53
2018-07-02T19:47:24.842Z,130.72
2018-07-02T19:49:55.948Z,131.95
2018-07-02T19:52:27.340Z,131.25
2018-07-02T19:54:58.488Z,133.25
2018-07-02T19:57:30.237Z,133.45
2018-07-02T20:00:01.637Z,135.22
2018-07-02T20:02:43.487Z,136.15
2018-07-02T20:05:14.909Z,129.85
2018-07-02T20:07:46.035Z,139.05
2018-07-02T20:10:17.146Z,134.00
2018-07-02T20:12:48.455Z,128.12
2018-07-02T20:15:20.156Z,130.32
2018-07-02T20:17:51.563Z,139.00
2018-07-02T20:20:23.287Z,128.57
2018-07-02T20:22:54.874Z,131.60
2018-07-02T20:25:26.331Z,131.90
2018-07-02T20:27:57.748Z,129.50
2018-07-02T20:30:29.011Z,130.32
2018-07-02T20:33:00.262Z,123.90
2018-07-02T20:35:31.747Z,124.67
2018-07-02T20:38:03.288Z,127.70
2018-07-02T20:40:34.858Z,126.20
2018-07-02T20:43:06.209Z,122.07
2018-07-02T20:45:37.544Z,122.15
2018-07-02T20:48:08.806Z,121.80
2018-07-02T20:50:40.015Z,124.42
2018-07-02T20:53:11.214Z,122.72
2018-07-02T20:55:42.633Z,131.03
2018-07-02T20:58:14.067Z,125.10
2018-07-02T21:00:45.395Z,129.27
2018-07-02T21:03:16.566Z,131.40
2018-07-02T21:05:48.107Z,122.67
2018-07-02T21:08:19.498Z,123.95
2018-07-02T21:10:50.876Z,123.62
2018-07-02T21:13:22.230Z,121.65
2018-07-02T21:15:53.421Z,121.82
2018-07-02T21:18:24.713Z,120.67
2018-07-02T21:20:55.959Z,124.78
2018-07-02T21:23:27.116Z,126.60
2018-07-02T21:25:58.463Z,119.60
2018-07-02T21:28:29.867Z,121.62
2018-07-02T21:31:01.160Z,129.63
2018-07-02T21:33:32.455Z,129.18
2018-07-02T21:36:03.812Z,127.32
2018-07-02T21:38:35.137Z,123.72
2018-07-02T21:41:06.515Z,125.00
2018-07-02T21:43:37.653Z,121.90
2018-07-02T21:46:08.951Z,125.42
2018-07-02T21:48:40.249Z,123.00
2018-07-02T21:51:11.247Z,125.80
2018-07-02T21:53:42.380Z,116.65
2018-07-02T21:56:14.481Z,121.00
2018-07-02T21:58:45.769Z,120.53
2018-07-02T22:01:21.406Z,121.95
2018-07-02T22:03:52.721Z,124.45
2018-07-02T22:06:24.041Z,117.47
2018-07-02T22:08:55.281Z,120.33
2018-07-02T22:11:26.527Z,122.45
2018-07-02T22:13:57.861Z,124.27
2018-07-02T22:16:29.044Z,123.10
2018-07-02T22:19:00.556Z,120.80
2018-07-02T22:21:31.841Z,121.77
2018-07-02T22:24:03.214Z,124.70
2018-07-02T22:26:36.253Z,120.47
2018-07-02T22:29:07.567Z,121.92
2018-07-02T22:31:38.771Z,125.85
2018-07-02T22:34:10.066Z,123.70
2018-07-02T22:36:41.378Z,121.17
2018-07-02T22:39:12.635Z,124.90
2018-07-02T22:41:45.607Z,121.05
2018-07-02T22:44:17.374Z,124.05
2018-07-02T22:46:48.719Z,126.22
2018-07-02T22:49:19.914Z,121.82
2018-07-02T22:51:51.237Z,126.27
2018-07-02T22:54:22.480Z,124.60
2018-07-02T22:56:53.819Z,129.30
2018-07-02T22:59:25.005Z,121.72
2018-07-02T23:01:56.366Z,121.65
2018-07-02T23:04:27.907Z,122.75
2018-07-02T23:06:59.386Z,118.87
2018-07-02T23:09:30.754Z,122.37
2018-07-02T23:12:03.772Z,122.28
2018-07-02T23:14:35.124Z,121.77
2018-07-02T23:17:06.479Z,123.13
2018-07-02T23:19:39.663Z,121.60
2018-07-02T23:22:11.340Z,123.02
2018-07-02T23:24:42.582Z,120.95
2018-07-02T23:27:14.228Z,120.33
2018-07-02T23:29:45.663Z,119.93
2018-07-02T23:32:16.997Z,122.00
2018-07-02T23:34:48.142Z,119.95
2018-07-02T23:37:19.624Z,116.93
2018-07-02T23:39:50.933Z,122.07
2018-07-02T23:42:22.448Z,125.53
2018-07-02T23:44:53.757Z,121.37
2018-07-02T23:47:25.312Z,121.53
2018-07-02T23:49:56.602Z,124.67
2018-07-02T23:52:27.990Z,118.47
2018-07-02T23:54:59.239Z,120.67
2018-07-02T23:57:30.919Z,120.55
